createdAt,value
2019-02-14T00:01:05.787Z,47.03
2019-02-14T00:03:38.028Z,44.57
2019-02-14T00:06:10.637Z,46.13
2019-02-14T00:08:42.079Z,44.30
2019-02-14T00:11:13.898Z,45.07
2019-02-14T00:13:45.383Z,55.20
2019-02-14T00:16:17.290Z,60.47
2019-02-14T00:18:48.707Z,44.97
2019-02-14T00:21:20.188Z,50.17
2019-02-14T00:23:53.108Z,46.43
2019-02-14T00:26:25.737Z,55.57
2019-02-14T00:28:57.067Z,45.37
2019-02-14T00:31:28.690Z,65.27
2019-02-14T00:34:01.234Z,51.33
2019-02-14T00:36:33.790Z,43.80
2019-02-14T00:39:05.732Z,45.20
2019-02-14T00:41:38.975Z,45.47
2019-02-14T00:44:10.663Z,53.40
2019-02-14T00:46:42.167Z,45.47
2019-02-14T00:49:16.135Z,46.00
2019-02-14T00:51:47.762Z,47.63
2019-02-14T00:54:19.233Z,46.17
2019-02-14T00:56:51.911Z,44.33
2019-02-14T00:59:23.357Z,46.37
2019-02-14T01:01:56.354Z,50.83
2019-02-14T01:04:29.342Z,46.40
2019-02-14T01:07:01.320Z,47.80
2019-02-14T01:09:33.677Z,47.90
2019-02-14T01:12:06.353Z,48.53
2019-02-14T01:14:39.276Z,47.47
2019-02-14T01:17:11.763Z,50.43
2019-02-14T01:19:44.035Z,49.03
2019-02-14T01:22:17.933Z,49.17
2019-02-14T01:24:50.013Z,52.63
2019-02-14T01:27:21.809Z,48.00
2019-02-14T01:29:55.492Z,48.10
2019-02-14T01:32:27.062Z,52.97
2019-02-14T01:34:58.714Z,49.93
2019-02-14T01:37:30.897Z,50.60
2019-02-14T01:40:02.270Z,48.27
2019-02-14T01:42:34.084Z,49.23
2019-02-14T01:45:06.474Z,45.77
2019-02-14T01:47:37.841Z,47.30
2019-02-14T01:50:11.891Z,48.30
2019-02-14T01:52:43.472Z,49.67
2019-02-14T01:55:14.953Z,47.90
2019-02-14T01:57:46.598Z,50.03
2019-02-14T02:00:19.851Z,49.63
2019-02-14T02:02:52.317Z,50.27
2019-02-14T02:05:24.879Z,57.07
2019-02-14T02:07:56.675Z,46.47
2019-02-14T02:10:27.975Z,47.77
2019-02-14T02:12:59.108Z,46.77
2019-02-14T02:15:30.211Z,47.70
2019-02-14T02:18:01.633Z,47.43
2019-02-14T02:20:33.554Z,48.67
2019-02-14T02:23:06.214Z,46.13
2019-02-14T02:25:43.459Z,45.37
2019-02-14T02:28:15.306Z,46.90
2019-02-14T02:30:46.410Z,48.20
2019-02-14T02:33:17.997Z,50.27
2019-02-14T02:35:49.617Z,46.40
2019-02-14T02:38:20.865Z,47.40
2019-02-14T02:40:54.257Z,46.60
2019-02-14T02:43:25.708Z,46.03
2019-02-14T02:45:59.080Z,46.40
2019-02-14T02:48:30.554Z,45.27
2019-02-14T02:51:02.096Z,48.43
2019-02-14T02:53:33.960Z,51.47
2019-02-14T02:56:07.038Z,45.47
2019-02-14T02:58:40.552Z,48.90
2019-02-14T03:01:12.028Z,45.93
2019-02-14T03:03:43.609Z,47.13
2019-02-14T03:06:15.025Z,50.27
2019-02-14T03:08:46.671Z,47.23
2019-02-14T03:11:18.118Z,44.30
2019-02-14T03:13:49.698Z,45.17
2019-02-14T03:16:21.315Z,46.13
2019-02-14T03:18:53.787Z,46.47
2019-02-14T03:21:27.061Z,46.07
2019-02-14T03:23:58.702Z,46.63
2019-02-14T03:26:30.242Z,45.67
2019-02-14T03:29:01.781Z,50.03
2019-02-14T03:31:33.298Z,47.63
2019-02-14T03:34:06.329Z,47.20
2019-02-14T03:36:39.675Z,46.23
2019-02-14T03:39:12.256Z,48.70
2019-02-14T03:41:44.703Z,48.17
2019-02-14T03:44:17.717Z,49.53
2019-02-14T03:46:49.085Z,49.33
2019-02-14T03:49:23.676Z,50.27
2019-02-14T03:51:55.476Z,49.67
2019-02-14T03:54:26.605Z,50.13
2019-02-14T03:56:57.704Z,48.53
2019-02-14T03:59:29.497Z,53.00
2019-02-14T04:02:02.547Z,50.10
2019-02-14T04:04:34.795Z,50.67
2019-02-14T04:07:06.029Z,49.97
2019-02-14T04:09:37.109Z,61.00
2019-02-14T04:12:08.877Z,53.77
2019-02-14T04:14:41.644Z,49.70
2019-02-14T04:17:13.242Z,54.43
2019-02-14T04:19:44.664Z,52.23
2019-02-14T04:22:17.355Z,52.40
2019-02-14T04:24:49.744Z,53.90
2019-02-14T04:27:22.290Z,53.83
2019-02-14T04:29:56.066Z,53.83
2019-02-14T04:32:29.626Z,53.37
2019-02-14T04:35:03.920Z,52.00
2019-02-14T04:37:36.068Z,54.83
2019-02-14T04:40:09.183Z,54.17
2019-02-14T04:42:41.173Z,53.37
2019-02-14T04:45:12.821Z,51.60
2019-02-14T04:47:45.045Z,54.13
2019-02-14T04:50:16.221Z,56.23
2019-02-14T04:52:47.308Z,53.30
2019-02-14T04:55:18.389Z,55.87
2019-02-14T04:57:51.200Z,54.67
2019-02-14T05:00:22.310Z,54.00
2019-02-14T05:02:53.395Z,54.57
2019-02-14T05:05:24.625Z,54.37
2019-02-14T05:07:56.513Z,56.13
2019-02-14T05:10:29.868Z,57.17
2019-02-14T05:13:02.731Z,58.33
2019-02-14T05:15:34.912Z,56.67
2019-02-14T05:18:06.527Z,54.23
2019-02-14T05:20:38.026Z,57.37
2019-02-14T05:23:11.111Z,55.33
2019-02-14T05:25:42.685Z,56.63
2019-02-14T05:28:15.700Z,57.83
2019-02-14T05:30:47.336Z,59.33
2019-02-14T05:33:18.795Z,57.97
2019-02-14T05:35:50.334Z,60.93
2019-02-14T05:38:23.399Z,58.90
2019-02-14T05:40:55.490Z,57.33
2019-02-14T05:43:27.123Z,57.17
2019-02-14T05:46:00.452Z,59.93
2019-02-14T05:48:31.530Z,61.63
2019-02-14T05:51:02.635Z,57.00
2019-02-14T05:53:35.647Z,59.13
2019-02-14T05:56:07.392Z,56.20
2019-02-14T05:58:41.480Z,60.20
2019-02-14T06:01:14.705Z,59.10
2019-02-14T06:03:46.438Z,59.33
2019-02-14T06:06:17.466Z,57.07
2019-02-14T06:08:49.119Z,41.60
2019-02-14T06:11:22.353Z,36.97
2019-02-14T06:13:53.501Z,38.87
2019-02-14T06:16:26.364Z,44.43
2019-02-14T06:18:57.503Z,48.33
2019-02-14T06:21:30.106Z,46.53
2019-02-14T06:24:02.842Z,41.83
2019-02-14T06:26:33.943Z,42.17
2019-02-14T06:29:05.858Z,38.87
2019-02-14T06:31:38.417Z,36.60
2019-02-14T06:34:11.170Z,37.70
2019-02-14T06:36:43.279Z,37.00
2019-02-14T06:39:14.702Z,37.30
2019-02-14T06:41:46.679Z,40.33
2019-02-14T06:44:19.103Z,40.07
2019-02-14T06:46:50.524Z,38.47
2019-02-14T06:49:23.960Z,43.30
2019-02-14T06:51:55.863Z,40.63
2019-02-14T06:54:28.297Z,36.00
2019-02-14T06:57:04.447Z,34.53
2019-02-14T06:59:35.904Z,34.77
2019-02-14T07:02:07.726Z,34.20
2019-02-14T07:04:39.467Z,34.23
2019-02-14T07:07:18.425Z,35.43
2019-02-14T07:09:44.825Z,35.87
2019-02-14T07:12:18.732Z,35.10
2019-02-14T07:14:51.108Z,37.50
2019-02-14T07:17:22.751Z,34.60
2019-02-14T07:19:57.455Z,35.27
2019-02-14T07:22:31.031Z,33.63
2019-02-14T07:25:02.939Z,34.67
2019-02-14T07:27:34.861Z,37.33
2019-02-14T07:30:08.739Z,35.43
2019-02-14T07:32:41.829Z,35.63
2019-02-14T07:35:13.882Z,34.83
2019-02-14T07:37:45.537Z,34.63
2019-02-14T07:40:16.504Z,34.10
2019-02-14T07:42:48.821Z,34.60
2019-02-14T07:45:22.190Z,32.77
2019-02-14T07:47:57.129Z,33.27
2019-02-14T07:50:28.297Z,35.27
2019-02-14T07:52:59.967Z,34.03
2019-02-14T07:55:32.610Z,34.23
2019-02-14T07:58:03.991Z,33.60
2019-02-14T08:00:37.535Z,34.30
2019-02-14T08:03:10.207Z,33.90
2019-02-14T08:05:41.700Z,32.93
2019-02-14T08:08:13.342Z,32.37
2019-02-14T08:10:44.825Z,33.67
2019-02-14T08:13:16.878Z,33.13
2019-02-14T08:15:48.340Z,33.50
2019-02-14T08:18:19.856Z,34.70
2019-02-14T08:20:52.429Z,33.43
2019-02-14T08:23:23.845Z,34.73
2019-02-14T08:25:56.005Z,34.17
2019-02-14T08:28:27.632Z,33.33
2019-02-14T08:31:00.307Z,33.17
2019-02-14T08:33:31.980Z,33.57
2019-02-14T08:36:03.625Z,32.93
2019-02-14T08:38:35.158Z,33.37
2019-02-14T08:41:07.747Z,33.87
2019-02-14T08:43:41.525Z,33.80
2019-02-14T08:46:13.083Z,33.27
2019-02-14T08:48:45.655Z,34.70
2019-02-14T08:51:18.840Z,34.77
2019-02-14T08:53:50.503Z,34.23
2019-02-14T08:56:23.922Z,34.30
2019-02-14T08:58:55.566Z,33.87
2019-02-14T09:01:27.057Z,33.10
2019-02-14T09:03:58.504Z,32.67
2019-02-14T09:06:31.043Z,34.40
2019-02-14T09:09:03.896Z,33.67
2019-02-14T09:11:35.629Z,34.53
2019-02-14T09:14:08.556Z,34.93
2019-02-14T09:16:40.299Z,34.03
2019-02-14T09:19:11.762Z,33.47
2019-02-14T09:21:45.326Z,32.83
2019-02-14T09:24:17.543Z,33.47
2019-02-14T09:26:50.227Z,34.13
2019-02-14T09:29:22.950Z,34.47
2019-02-14T09:31:54.903Z,36.67
2019-02-14T09:34:26.538Z,35.50
2019-02-14T09:36:58.282Z,35.47
2019-02-14T09:39:40.618Z,35.33
2019-02-14T09:42:06.086Z,34.80
2019-02-14T09:44:38.408Z,34.33
2019-02-14T09:47:09.945Z,34.93
2019-02-14T09:49:42.312Z,34.97
2019-02-14T09:52:13.983Z,36.87
2019-02-14T09:54:47.137Z,37.50
2019-02-14T09:57:18.990Z,36.33
2019-02-14T09:59:50.342Z,37.53
2019-02-14T10:02:21.895Z,36.37
2019-02-14T10:04:54.438Z,35.93
2019-02-14T10:07:27.180Z,37.80
2019-02-14T10:09:58.700Z,37.47
2019-02-14T10:12:30.160Z,38.83
2019-02-14T10:15:01.846Z,41.37
2019-02-14T10:17:33.678Z,40.30
2019-02-14T10:20:05.835Z,42.17
2019-02-14T10:22:37.581Z,41.63
2019-02-14T10:25:09.452Z,40.93
2019-02-14T10:27:40.909Z,40.80
2019-02-14T10:30:17.226Z,47.97
2019-02-14T10:32:48.824Z,37.10
2019-02-14T10:35:20.920Z,32.27
2019-02-14T10:37:52.371Z,29.93
2019-02-14T10:40:23.986Z,28.00
2019-02-14T10:42:55.439Z,27.60
2019-02-14T10:45:27.282Z,27.87
2019-02-14T10:47:59.827Z,28.77
2019-02-14T10:50:31.262Z,27.30
2019-02-14T10:53:03.074Z,26.23
2019-02-14T10:55:35.147Z,26.23
2019-02-14T10:58:07.830Z,26.67
2019-02-14T11:00:39.478Z,25.93
2019-02-14T11:03:10.956Z,25.80
2019-02-14T11:05:42.464Z,25.57
2019-02-14T11:08:15.547Z,23.97
2019-02-14T11:10:47.097Z,23.13
2019-02-14T11:13:19.183Z,24.23
2019-02-14T11:15:52.083Z,23.80
2019-02-14T11:18:24.245Z,22.67
2019-02-14T11:20:55.669Z,22.43
2019-02-14T11:23:27.156Z,24.10
2019-02-14T11:25:58.823Z,22.90
2019-02-14T11:28:30.256Z,22.67
2019-02-14T11:31:01.798Z,23.63
2019-02-14T11:33:33.345Z,21.67
2019-02-14T11:36:05.707Z,21.70
2019-02-14T11:38:40.654Z,21.77
2019-02-14T11:41:10.456Z,21.33
2019-02-14T11:43:43.002Z,20.47
2019-02-14T11:46:15.476Z,21.33
2019-02-14T11:48:48.022Z,20.03
2019-02-14T11:51:20.540Z,20.77
2019-02-14T11:53:52.116Z,20.67
2019-02-14T11:56:26.490Z,20.87
2019-02-14T11:58:58.421Z,20.13
2019-02-14T12:01:29.946Z,20.83
2019-02-14T12:04:01.759Z,19.97
2019-02-14T12:06:33.402Z,20.03
2019-02-14T12:09:07.324Z,18.13
2019-02-14T12:11:39.861Z,18.23
2019-02-14T12:14:11.451Z,20.57
2019-02-14T12:16:44.266Z,17.53
2019-02-14T12:19:16.407Z,18.17
2019-02-14T12:21:49.531Z,16.97
2019-02-14T12:24:21.055Z,14.90
2019-02-14T12:26:52.708Z,15.37
2019-02-14T12:29:25.645Z,15.23
2019-02-14T12:31:58.403Z,14.67
2019-02-14T12:34:32.217Z,14.33
2019-02-14T12:37:03.853Z,14.80
2019-02-14T12:39:36.342Z,13.30
2019-02-14T12:42:08.209Z,13.43
2019-02-14T12:44:39.786Z,11.77
2019-02-14T12:47:11.855Z,12.17
2019-02-14T12:49:44.341Z,11.90
2019-02-14T12:52:15.829Z,12.10
2019-02-14T12:54:48.739Z,11.27
2019-02-14T12:57:20.566Z,11.47
2019-02-14T12:59:52.757Z,10.57
2019-02-14T13:02:26.947Z,9.67
2019-02-14T13:05:13.214Z,10.13
2019-02-14T13:07:45.723Z,9.03
2019-02-14T13:10:17.987Z,8.87
2019-02-14T13:12:50.246Z,9.07
2019-02-14T13:15:23.122Z,10.23
2019-02-14T13:17:54.198Z,9.27
2019-02-14T13:20:28.087Z,9.60
2019-02-14T13:23:01.204Z,8.10
2019-02-14T13:25:34.029Z,9.33
2019-02-14T13:28:07.100Z,7.73
2019-02-14T13:30:39.626Z,7.00
2019-02-14T13:33:12.094Z,7.53
2019-02-14T13:35:44.177Z,7.80
2019-02-14T13:38:18.538Z,8.70
2019-02-14T13:40:50.382Z,7.07
2019-02-14T13:43:22.924Z,7.90
2019-02-14T13:46:00.229Z,7.23
2019-02-14T13:48:31.877Z,7.90
2019-02-14T13:51:03.755Z,7.43
2019-02-14T13:53:34.859Z,7.80
2019-02-14T13:56:08.446Z,7.87
2019-02-14T13:58:39.580Z,7.77
2019-02-14T14:01:10.713Z,7.80
2019-02-14T14:03:46.245Z,7.73
2019-02-14T14:06:19.067Z,7.30
2019-02-14T14:08:51.550Z,8.00
2019-02-14T14:11:22.717Z,8.30
2019-02-14T14:13:54.845Z,8.47
2019-02-14T14:16:25.987Z,7.93
2019-02-14T14:19:05.979Z,8.03
2019-02-14T14:21:30.818Z,8.27
2019-02-14T14:24:01.883Z,8.07
2019-02-14T14:26:33.872Z,8.77
2019-02-14T14:29:05.999Z,7.87
2019-02-14T14:31:37.283Z,10.73
2019-02-14T14:34:08.446Z,8.07
2019-02-14T14:36:39.705Z,6.97
2019-02-14T14:39:12.801Z,8.67
2019-02-14T14:41:45.889Z,18.30
2019-02-14T14:44:36.216Z,8.60
2019-02-14T14:47:26.377Z,7.40
2019-02-14T14:49:59.198Z,6.63
2019-02-14T14:52:32.106Z,6.60
2019-02-14T14:55:03.201Z,6.10
2019-02-14T14:57:34.666Z,6.90
2019-02-14T15:00:07.544Z,7.30
2019-02-14T15:02:41.324Z,6.80
2019-02-14T15:05:14.172Z,6.47
2019-02-14T15:07:46.980Z,6.87
2019-02-14T15:10:18.549Z,6.73
2019-02-14T15:12:50.445Z,5.90
2019-02-14T15:15:23.364Z,6.17
2019-02-14T15:17:55.620Z,6.50
2019-02-14T15:20:26.731Z,6.50
2019-02-14T15:22:58.798Z,6.10
2019-02-14T15:25:31.718Z,6.40
2019-02-14T15:28:02.882Z,6.27
2019-02-14T15:30:34.779Z,6.13
2019-02-14T15:33:05.964Z,6.70
2019-02-14T15:35:37.119Z,6.23
2019-02-14T15:38:09.814Z,6.20
2019-02-14T15:40:41.739Z,5.73
2019-02-14T15:43:14.362Z,5.53
2019-02-14T15:45:45.917Z,5.93
2019-02-14T15:48:17.369Z,6.13
2019-02-14T15:50:51.496Z,5.90
2019-02-14T15:53:24.283Z,7.27
2019-02-14T15:55:56.523Z,6.30
2019-02-14T15:58:30.770Z,6.57
2019-02-14T16:01:02.677Z,7.00
2019-02-14T16:03:34.867Z,7.13
2019-02-14T16:06:06.915Z,6.70
2019-02-14T16:08:38.420Z,6.67
2019-02-14T16:11:11.437Z,7.47
2019-02-14T16:13:42.980Z,7.50
2019-02-14T16:16:14.978Z,6.47
2019-02-14T16:18:49.047Z,7.50
2019-02-14T16:21:19.808Z,8.17
2019-02-14T16:23:52.632Z,7.60
2019-02-14T16:26:24.158Z,7.43
2019-02-14T16:28:56.675Z,6.97
2019-02-14T16:31:27.827Z,7.83
2019-02-14T16:33:58.922Z,7.77
2019-02-14T16:36:30.023Z,7.50
2019-02-14T16:39:01.829Z,7.00
2019-02-14T16:41:34.272Z,7.60
2019-02-14T16:44:05.451Z,8.47
2019-02-14T16:46:36.547Z,7.33
2019-02-14T16:49:07.669Z,7.87
2019-02-14T16:51:40.490Z,7.33
2019-02-14T16:54:12.681Z,7.60
2019-02-14T16:56:46.634Z,7.43
2019-02-14T16:59:19.131Z,7.83
2019-02-14T17:01:50.544Z,8.03
2019-02-14T17:04:22.271Z,8.33
2019-02-14T17:06:54.444Z,8.10
2019-02-14T17:09:25.611Z,9.43
2019-02-14T17:11:56.845Z,43.07
2019-02-14T17:14:28.737Z,33.40
2019-02-14T17:17:00.177Z,46.17
2019-02-14T17:19:32.511Z,36.27
2019-02-14T17:22:05.078Z,40.57
2019-02-14T17:24:37.304Z,33.63
2019-02-14T17:27:09.733Z,55.87
2019-02-14T17:29:42.049Z,81.63
2019-02-14T17:32:13.549Z,31.27
2019-02-14T17:34:45.069Z,55.77
2019-02-14T17:37:16.182Z,108.13
2019-02-14T17:39:49.250Z,91.97
2019-02-14T17:42:20.316Z,123.37
2019-02-14T17:44:53.390Z,87.33
2019-02-14T17:47:25.318Z,45.30
2019-02-14T17:49:56.970Z,40.10
2019-02-14T17:52:29.097Z,29.40
2019-02-14T17:55:01.160Z,23.80
2019-02-14T17:57:32.296Z,19.70
2019-02-14T18:00:03.405Z,20.60
2019-02-14T18:02:34.701Z,49.73
2019-02-14T18:05:06.482Z,35.90
2019-02-14T18:07:38.349Z,45.03
2019-02-14T18:10:11.746Z,22.23
2019-02-14T18:12:43.082Z,20.70
2019-02-14T18:15:14.829Z,25.27
2019-02-14T18:17:46.082Z,17.03
2019-02-14T18:20:18.278Z,30.77
2019-02-14T18:22:49.526Z,51.53
2019-02-14T18:25:24.833Z,23.73
2019-02-14T18:27:56.566Z,31.17
2019-02-14T18:30:31.327Z,30.00
2019-02-14T18:33:03.009Z,27.50
2019-02-14T18:35:36.399Z,62.37
2019-02-14T18:38:09.271Z,52.17
2019-02-14T18:40:41.636Z,53.67
2019-02-14T18:43:18.032Z,28.13
2019-02-14T18:45:53.920Z,16.87
2019-02-14T18:48:27.150Z,29.93
2019-02-14T18:50:58.885Z,50.97
2019-02-14T18:53:30.343Z,61.40
2019-02-14T18:56:01.886Z,54.63
2019-02-14T18:58:33.293Z,64.67
2019-02-14T19:01:09.223Z,74.47
2019-02-14T19:03:40.687Z,61.40
2019-02-14T19:06:12.210Z,37.67
2019-02-14T19:08:43.706Z,57.77
2019-02-14T19:11:15.607Z,57.93
2019-02-14T19:13:46.933Z,58.90
2019-02-14T19:16:18.331Z,69.60
2019-02-14T19:18:49.937Z,68.53
2019-02-14T19:21:21.797Z,66.73
2019-02-14T19:23:55.657Z,42.20
2019-02-14T19:26:27.043Z,62.03
2019-02-14T19:28:59.704Z,53.90
2019-02-14T19:31:31.245Z,57.67
2019-02-14T19:34:03.316Z,61.90
2019-02-14T19:36:36.281Z,60.47
2019-02-14T19:39:09.483Z,53.80
2019-02-14T19:41:40.585Z,55.10
2019-02-14T19:44:13.090Z,52.97
2019-02-14T19:46:44.306Z,42.93
2019-02-14T19:49:16.926Z,44.93
2019-02-14T19:51:48.430Z,43.53
2019-02-14T19:54:19.847Z,41.33
2019-02-14T19:56:51.058Z,41.73
2019-02-14T19:59:22.158Z,43.50
2019-02-14T20:01:53.256Z,39.27
2019-02-14T20:04:24.454Z,38.83
2019-02-14T20:06:55.561Z,37.73
2019-02-14T20:09:26.712Z,38.73
2019-02-14T20:12:01.466Z,36.70
2019-02-14T20:14:32.715Z,38.70
2019-02-14T20:17:07.315Z,33.60
2019-02-14T20:19:40.893Z,34.53
2019-02-14T20:22:12.157Z,36.07
2019-02-14T20:24:43.613Z,34.70
2019-02-14T20:27:15.352Z,32.43
2019-02-14T20:29:50.543Z,28.77
2019-02-14T20:32:22.672Z,30.60
2019-02-14T20:34:54.465Z,28.93
2019-02-14T20:37:25.865Z,30.70
2019-02-14T20:39:57.374Z,32.23
2019-02-14T20:42:30.609Z,29.63
2019-02-14T20:45:02.125Z,29.07
2019-02-14T20:47:33.810Z,27.30
2019-02-14T20:50:05.371Z,25.80
2019-02-14T20:52:39.342Z,22.33
2019-02-14T20:55:14.628Z,23.10
2019-02-14T20:57:48.097Z,34.60
2019-02-14T21:00:32.859Z,28.53
2019-02-14T21:03:04.848Z,28.70
2019-02-14T21:05:39.815Z,25.73
2019-02-14T21:08:13.726Z,26.77
2019-02-14T21:10:46.309Z,23.27
2019-02-14T21:13:19.266Z,22.67
2019-02-14T21:15:50.960Z,25.67
2019-02-14T21:18:23.798Z,23.77
2019-02-14T21:20:55.449Z,21.37
2019-02-14T21:23:30.508Z,20.83
2019-02-14T21:26:03.457Z,21.50
2019-02-14T21:28:35.859Z,22.37
2019-02-14T21:31:08.196Z,20.30
2019-02-14T21:33:39.588Z,22.57
2019-02-14T21:36:10.894Z,22.30
2019-02-14T21:38:43.018Z,23.20
2019-02-14T21:41:14.560Z,25.60
2019-02-14T21:43:45.632Z,26.10
2019-02-14T21:46:17.650Z,20.53
2019-02-14T21:48:48.759Z,22.53
2019-02-14T21:51:19.835Z,23.33
2019-02-14T21:53:51.275Z,22.83
2019-02-14T21:56:22.734Z,22.53
2019-02-14T21:58:54.066Z,22.60
2019-02-14T22:01:28.466Z,20.20
2019-02-14T22:04:00.278Z,19.77
2019-02-14T22:06:31.718Z,20.20
2019-02-14T22:09:04.540Z,19.37
2019-02-14T22:11:36.243Z,21.07
2019-02-14T22:14:07.837Z,21.70
2019-02-14T22:16:39.329Z,20.17
2019-02-14T22:19:10.944Z,20.27
2019-02-14T22:21:43.080Z,17.63
2019-02-14T22:24:15.500Z,19.83
2019-02-14T22:26:47.087Z,20.90
2019-02-14T22:29:19.802Z,20.27
2019-02-14T22:31:51.255Z,20.53
2019-02-14T22:34:22.685Z,19.77
2019-02-14T22:36:54.362Z,18.93
2019-02-14T22:39:26.446Z,22.10
2019-02-14T22:41:58.086Z,21.20
2019-02-14T22:44:30.300Z,20.60
2019-02-14T22:47:02.715Z,19.37
2019-02-14T22:49:34.550Z,18.17
2019-02-14T22:52:06.668Z,16.97
2019-02-14T22:54:38.189Z,19.20
2019-02-14T22:57:09.671Z,17.37
2019-02-14T22:59:42.391Z,21.03
2019-02-14T23:02:13.991Z,18.57
2019-02-14T23:04:45.710Z,18.40
2019-02-14T23:07:17.669Z,20.57
2019-02-14T23:09:50.374Z,21.47
2019-02-14T23:12:23.376Z,19.60
2019-02-14T23:14:56.210Z,17.90
2019-02-14T23:17:27.293Z,17.43
2019-02-14T23:19:58.810Z,13.17
2019-02-14T23:22:29.967Z,13.03
2019-02-14T23:25:01.070Z,13.87
2019-02-14T23:27:32.160Z,14.33
2019-02-14T23:30:08.490Z,13.83
2019-02-14T23:32:39.573Z,13.00
2019-02-14T23:35:10.765Z,14.10
2019-02-14T23:37:41.873Z,14.57
2019-02-14T23:40:13.559Z,14.87
2019-02-14T23:42:45.231Z,14.93
2019-02-14T23:45:17.146Z,14.40
2019-02-14T23:47:48.409Z,14.40
2019-02-14T23:50:20.354Z,14.50
2019-02-14T23:52:51.432Z,13.70
2019-02-14T23:55:22.537Z,13.83
2019-02-14T23:57:53.673Z,13.73
